sensor_id;sensor_type;location;lat;lon;timestamp;P1;durP1;ratioP1;P2;durP2;ratioP2
21987;SDS011;11158;53.404;-1.510;2024-03-23T00:52:35;11.63;;;1.10;;
21987;SDS011;11158;53.404;-1.510;2024-03-23T00:57:26;11.83;;;1.60;;
21987;SDS011;11158;53.404;-1.510;2024-03-23T01:02:16;8.27;;;1.30;;
21987;SDS011;11158;53.404;-1.510;2024-03-23T01:07:07;9.57;;;0.80;;
21987;SDS011;11158;53.404;-1.510;2024-03-23T01:11:58;11.80;;;1.77;;
21987;SDS011;11158;53.404;-1.510;2024-03-23T01:14:23;12.10;;;1.60;;
21987;SDS011;11158;53.404;-1.510;2024-03-23T01:19:14;12.80;;;1.52;;
21987;SDS011;11158;53.404;-1.510;2024-03-23T01:24:04;11.47;;;1.83;;
21987;SDS011;11158;53.404;-1.510;2024-03-23T01:28:55;8.33;;;1.13;;
21987;SDS011;11158;53.404;-1.510;2024-03-23T01:33:46;8.53;;;1.07;;
21987;SDS011;11158;53.404;-1.510;2024-03-23T01:36:11;11.77;;;1.13;;
21987;SDS011;11158;53.404;-1.510;2024-03-23T01:41:02;8.47;;;1.20;;
21987;SDS011;11158;53.404;-1.510;2024-03-23T01:45:52;10.57;;;1.37;;
21987;SDS011;11158;53.404;-1.510;2024-03-23T01:48:21;12.25;;;1.42;;
21987;SDS011;11158;53.404;-1.510;2024-03-23T01:50:47;4.15;;;1.17;;
21987;SDS011;11158;53.404;-1.510;2024-03-23T01:53:13;9.68;;;1.73;;
21987;SDS011;11158;53.404;-1.510;2024-03-23T01:55:42;11.95;;;1.58;;
21987;SDS011;11158;53.404;-1.510;2024-03-23T01:58:08;8.07;;;1.20;;
21987;SDS011;11158;53.404;-1.510;2024-03-23T02:02:58;27.50;;;1.00;;
21987;SDS011;11158;53.404;-1.510;2024-03-23T02:05:24;11.32;;;1.38;;
21987;SDS011;11158;53.404;-1.510;2024-03-23T02:10:15;12.63;;;1.17;;
21987;SDS011;11158;53.404;-1.510;2024-03-23T02:12:41;13.45;;;1.73;;
21987;SDS011;11158;53.404;-1.510;2024-03-23T02:15:06;14.35;;;1.20;;
21987;SDS011;11158;53.404;-1.510;2024-03-23T02:17:34;12.18;;;1.60;;
21987;SDS011;11158;53.404;-1.510;2024-03-23T02:20:00;10.27;;;1.20;;
21987;SDS011;11158;53.404;-1.510;2024-03-23T02:22:36;6.80;;;1.10;;
21987;SDS011;11158;53.404;-1.510;2024-03-23T02:25:03;7.88;;;1.00;;
21987;SDS011;11158;53.404;-1.510;2024-03-23T02:27:31;12.73;;;1.55;;
21987;SDS011;11158;53.404;-1.510;2024-03-23T02:29:58;7.97;;;1.05;;
21987;SDS011;11158;53.404;-1.510;2024-03-23T02:32:23;9.95;;;1.25;;
21987;SDS011;11158;53.404;-1.510;2024-03-23T02:37:14;9.13;;;1.10;;
21987;SDS011;11158;53.404;-1.510;2024-03-23T02:42:05;10.73;;;1.07;;
21987;SDS011;11158;53.404;-1.510;2024-03-23T02:44:30;14.18;;;1.40;;
21987;SDS011;11158;53.404;-1.510;2024-03-23T02:49:21;12.83;;;1.37;;
21987;SDS011;11158;53.404;-1.510;2024-03-23T02:54:13;7.75;;;1.08;;
21987;SDS011;11158;53.404;-1.510;2024-03-23T02:56:38;12.65;;;1.10;;
21987;SDS011;11158;53.404;-1.510;2024-03-23T03:01:29;12.73;;;0.87;;
21987;SDS011;11158;53.404;-1.510;2024-03-23T03:06:24;6.83;;;0.80;;
21987;SDS011;11158;53.404;-1.510;2024-03-23T03:08:50;8.55;;;1.13;;
21987;SDS011;11158;53.404;-1.510;2024-03-23T03:11:15;15.45;;;1.35;;
21987;SDS011;11158;53.404;-1.510;2024-03-23T03:16:10;9.07;;;1.23;;
21987;SDS011;11158;53.404;-1.510;2024-03-23T03:18:35;15.30;;;1.13;;
21987;SDS011;11158;53.404;-1.510;2024-03-23T03:23:26;10.13;;;0.98;;
21987;SDS011;11158;53.404;-1.510;2024-03-23T03:28:17;10.77;;;1.20;;
21987;SDS011;11158;53.404;-1.510;2024-03-23T03:33:08;8.70;;;1.30;;
21987;SDS011;11158;53.404;-1.510;2024-03-23T03:37:58;10.37;;;1.27;;
21987;SDS011;11158;53.404;-1.510;2024-03-23T03:42:50;13.50;;;1.58;;
21987;SDS011;11158;53.404;-1.510;2024-03-23T03:45:15;3.35;;;1.00;;
21987;SDS011;11158;53.404;-1.510;2024-03-23T03:50:06;17.80;;;1.60;;
21987;SDS011;11158;53.404;-1.510;2024-03-23T03:55:01;9.37;;;1.10;;
21987;SDS011;11158;53.404;-1.510;2024-03-23T03:57:27;9.15;;;1.08;;
21987;SDS011;11158;53.404;-1.510;2024-03-23T04:02:18;12.20;;;1.73;;
21987;SDS011;11158;53.404;-1.510;2024-03-23T04:07:08;7.63;;;1.23;;
21987;SDS011;11158;53.404;-1.510;2024-03-23T04:11:59;2.80;;;0.67;;
21987;SDS011;11158;53.404;-1.510;2024-03-23T04:16:50;8.73;;;1.20;;
21987;SDS011;11158;53.404;-1.510;2024-03-23T04:21:40;7.43;;;0.70;;
21987;SDS011;11158;53.404;-1.510;2024-03-23T04:26:40;3.93;;;0.67;;
21987;SDS011;11158;53.404;-1.510;2024-03-23T04:29:06;4.35;;;0.70;;
21987;SDS011;11158;53.404;-1.510;2024-03-23T04:33:59;5.57;;;0.82;;
21987;SDS011;11158;53.404;-1.510;2024-03-23T04:36:25;7.60;;;1.10;;
21987;SDS011;11158;53.404;-1.510;2024-03-23T04:38:50;7.00;;;1.08;;
21987;SDS011;11158;53.404;-1.510;2024-03-23T04:41:17;11.88;;;1.55;;
21987;SDS011;11158;53.404;-1.510;2024-03-23T04:46:08;12.03;;;1.17;;
21987;SDS011;11158;53.404;-1.510;2024-03-23T04:50:59;12.80;;;1.00;;
21987;SDS011;11158;53.404;-1.510;2024-03-23T04:55:53;3.33;;;0.85;;
21987;SDS011;11158;53.404;-1.510;2024-03-23T04:58:20;6.25;;;0.98;;
21987;SDS011;11158;53.404;-1.510;2024-03-23T05:03:10;6.47;;;1.10;;
21987;SDS011;11158;53.404;-1.510;2024-03-23T05:05:36;12.50;;;1.73;;
21987;SDS011;11158;53.404;-1.510;2024-03-23T05:10:26;8.33;;;0.97;;
21987;SDS011;11158;53.404;-1.510;2024-03-23T05:15:17;9.80;;;0.83;;
21987;SDS011;11158;53.404;-1.510;2024-03-23T05:20:08;6.53;;;0.90;;
21987;SDS011;11158;53.404;-1.510;2024-03-23T05:22:35;4.15;;;0.80;;
21987;SDS011;11158;53.404;-1.510;2024-03-23T05:25:01;8.18;;;0.90;;
21987;SDS011;11158;53.404;-1.510;2024-03-23T05:27:29;13.68;;;1.67;;
21987;SDS011;11158;53.404;-1.510;2024-03-23T05:29:54;4.68;;;1.15;;
21987;SDS011;11158;53.404;-1.510;2024-03-23T05:34:45;11.25;;;1.55;;
21987;SDS011;11158;53.404;-1.510;2024-03-23T05:39:36;9.77;;;1.33;;
21987;SDS011;11158;53.404;-1.510;2024-03-23T05:44:27;14.45;;;1.33;;
21987;SDS011;11158;53.404;-1.510;2024-03-23T05:49:17;8.10;;;1.40;;
21987;SDS011;11158;53.404;-1.510;2024-03-23T05:54:08;12.18;;;1.88;;
21987;SDS011;11158;53.404;-1.510;2024-03-23T05:58:59;8.60;;;1.63;;
21987;SDS011;11158;53.404;-1.510;2024-03-23T06:03:53;5.88;;;0.70;;
21987;SDS011;11158;53.404;-1.510;2024-03-23T06:08:44;6.27;;;1.03;;
21987;SDS011;11158;53.404;-1.510;2024-03-23T06:13:35;9.30;;;0.80;;
21987;SDS011;11158;53.404;-1.510;2024-03-23T06:18:26;7.68;;;1.00;;
21987;SDS011;11158;53.404;-1.510;2024-03-23T06:20:51;4.32;;;0.90;;
21987;SDS011;11158;53.404;-1.510;2024-03-23T06:25:44;11.98;;;0.95;;
21987;SDS011;11158;53.404;-1.510;2024-03-23T06:30:35;14.20;;;1.33;;
21987;SDS011;11158;53.404;-1.510;2024-03-23T06:35:27;6.32;;;0.70;;
21987;SDS011;11158;53.404;-1.510;2024-03-23T06:40:18;5.20;;;1.03;;
21987;SDS011;11158;53.404;-1.510;2024-03-23T06:45:09;9.27;;;0.93;;
21987;SDS011;11158;53.404;-1.510;2024-03-23T06:47:35;8.45;;;0.98;;
21987;SDS011;11158;53.404;-1.510;2024-03-23T06:52:27;6.55;;;1.00;;
21987;SDS011;11158;53.404;-1.510;2024-03-23T06:54:53;10.63;;;1.30;;
21987;SDS011;11158;53.404;-1.510;2024-03-23T06:59:44;7.80;;;0.90;;
21987;SDS011;11158;53.404;-1.510;2024-03-23T07:04:35;5.87;;;0.97;;
21987;SDS011;11158;53.404;-1.510;2024-03-23T07:07:00;6.43;;;1.20;;
21987;SDS011;11158;53.404;-1.510;2024-03-23T07:09:29;9.52;;;1.00;;
21987;SDS011;11158;53.404;-1.510;2024-03-23T07:11:55;8.20;;;1.00;;
21987;SDS011;11158;53.404;-1.510;2024-03-23T07:14:21;10.77;;;1.27;;
21987;SDS011;11158;53.404;-1.510;2024-03-23T07:16:47;8.02;;;1.10;;
21987;SDS011;11158;53.404;-1.510;2024-03-23T07:19:14;13.77;;;1.08;;
21987;SDS011;11158;53.404;-1.510;2024-03-23T07:21:41;8.13;;;1.10;;
21987;SDS011;11158;53.404;-1.510;2024-03-23T07:24:07;5.70;;;0.75;;
21987;SDS011;11158;53.404;-1.510;2024-03-23T07:28:58;4.87;;;0.77;;
21987;SDS011;11158;53.404;-1.510;2024-03-23T07:33:50;8.10;;;0.93;;
21987;SDS011;11158;53.404;-1.510;2024-03-23T07:38:41;6.63;;;0.77;;
21987;SDS011;11158;53.404;-1.510;2024-03-23T07:43:43;11.23;;;1.73;;
21987;SDS011;11158;53.404;-1.510;2024-03-23T07:46:09;9.48;;;0.95;;
21987;SDS011;11158;53.404;-1.510;2024-03-23T07:48:34;2.45;;;0.70;;
21987;SDS011;11158;53.404;-1.510;2024-03-23T07:53:25;9.63;;;1.00;;
21987;SDS011;11158;53.404;-1.510;2024-03-23T07:58:20;6.45;;;1.05;;
21987;SDS011;11158;53.404;-1.510;2024-03-23T08:03:10;10.33;;;0.87;;
21987;SDS011;11158;53.404;-1.510;2024-03-23T08:08:01;10.10;;;0.93;;
21987;SDS011;11158;53.404;-1.510;2024-03-23T08:12:52;8.70;;;1.30;;
21987;SDS011;11158;53.404;-1.510;2024-03-23T08:17:42;8.53;;;1.33;;
21987;SDS011;11158;53.404;-1.510;2024-03-23T08:22:33;4.50;;;0.90;;
21987;SDS011;11158;53.404;-1.510;2024-03-23T08:27:24;5.10;;;0.83;;
21987;SDS011;11158;53.404;-1.510;2024-03-23T08:32:15;8.00;;;0.90;;
21987;SDS011;11158;53.404;-1.510;2024-03-23T08:34:41;14.85;;;1.48;;
21987;SDS011;11158;53.404;-1.510;2024-03-23T08:37:07;14.75;;;1.25;;
21987;SDS011;11158;53.404;-1.510;2024-03-23T08:41:58;4.33;;;0.77;;
21987;SDS011;11158;53.404;-1.510;2024-03-23T08:46:48;3.33;;;0.70;;
21987;SDS011;11158;53.404;-1.510;2024-03-23T08:51:39;7.28;;;0.85;;
21987;SDS011;11158;53.404;-1.510;2024-03-23T08:56:30;6.27;;;0.97;;
21987;SDS011;11158;53.404;-1.510;2024-03-23T09:01:22;10.03;;;1.50;;
21987;SDS011;11158;53.404;-1.510;2024-03-23T09:03:48;9.68;;;1.33;;
21987;SDS011;11158;53.404;-1.510;2024-03-23T09:06:14;8.27;;;0.93;;
21987;SDS011;11158;53.404;-1.510;2024-03-23T09:08:40;9.40;;;1.08;;
21987;SDS011;11158;53.404;-1.510;2024-03-23T09:11:06;9.50;;;0.93;;
21987;SDS011;11158;53.404;-1.510;2024-03-23T09:13:36;11.00;;;1.13;;
21987;SDS011;11158;53.404;-1.510;2024-03-23T09:16:03;7.15;;;0.82;;
21987;SDS011;11158;53.404;-1.510;2024-03-23T09:18:31;7.47;;;0.88;;
21987;SDS011;11158;53.404;-1.510;2024-03-23T09:21:03;2.45;;;0.50;;
21987;SDS011;11158;53.404;-1.510;2024-03-23T09:23:29;5.90;;;0.82;;
21987;SDS011;11158;53.404;-1.510;2024-03-23T09:25:55;11.27;;;1.13;;
21987;SDS011;11158;53.404;-1.510;2024-03-23T09:30:46;12.10;;;1.30;;
21987;SDS011;11158;53.404;-1.510;2024-03-23T09:33:11;12.77;;;1.20;;
21987;SDS011;11158;53.404;-1.510;2024-03-23T09:35:38;8.93;;;0.73;;
21987;SDS011;11158;53.404;-1.510;2024-03-23T09:38:04;8.93;;;1.00;;
21987;SDS011;11158;53.404;-1.510;2024-03-23T09:40:29;7.80;;;0.82;;
21987;SDS011;11158;53.404;-1.510;2024-03-23T09:42:55;6.47;;;0.60;;
21987;SDS011;11158;53.404;-1.510;2024-03-23T09:45:27;2.72;;;0.47;;
21987;SDS011;11158;53.404;-1.510;2024-03-23T09:47:53;5.28;;;0.50;;
21987;SDS011;11158;53.404;-1.510;2024-03-23T09:50:19;8.80;;;0.90;;
21987;SDS011;11158;53.404;-1.510;2024-03-23T09:55:11;10.98;;;1.50;;
21987;SDS011;11158;53.404;-1.510;2024-03-23T10:00:02;11.00;;;1.00;;
21987;SDS011;11158;53.404;-1.510;2024-03-23T10:02:28;8.65;;;0.93;;
21987;SDS011;11158;53.404;-1.510;2024-03-23T10:04:54;5.72;;;0.90;;
21987;SDS011;11158;53.404;-1.510;2024-03-23T10:07:20;7.07;;;1.80;;
21987;SDS011;11158;53.404;-1.510;2024-03-23T10:09:46;11.38;;;1.17;;
21987;SDS011;11158;53.404;-1.510;2024-03-23T10:12:13;11.20;;;1.20;;
21987;SDS011;11158;53.404;-1.510;2024-03-23T10:14:40;5.65;;;0.77;;
21987;SDS011;11158;53.404;-1.510;2024-03-23T10:17:13;7.35;;;0.85;;
21987;SDS011;11158;53.404;-1.510;2024-03-23T10:19:40;7.93;;;0.80;;
21987;SDS011;11158;53.404;-1.510;2024-03-23T10:22:08;7.05;;;0.52;;
21987;SDS011;11158;53.404;-1.510;2024-03-23T10:24:34;4.13;;;0.80;;
21987;SDS011;11158;53.404;-1.510;2024-03-23T10:27:00;6.18;;;0.75;;
21987;SDS011;11158;53.404;-1.510;2024-03-23T10:31:52;4.38;;;0.40;;
21987;SDS011;11158;53.404;-1.510;2024-03-23T10:36:50;16.85;;;0.93;;
21987;SDS011;11158;53.404;-1.510;2024-03-23T10:39:17;2.80;;;0.70;;
21987;SDS011;11158;53.404;-1.510;2024-03-23T10:41:43;6.45;;;0.90;;
21987;SDS011;11158;53.404;-1.510;2024-03-23T10:44:10;7.75;;;0.52;;
21987;SDS011;11158;53.404;-1.510;2024-03-23T10:46:37;2.30;;;0.63;;
21987;SDS011;11158;53.404;-1.510;2024-03-23T10:51:28;2.88;;;0.50;;
21987;SDS011;11158;53.404;-1.510;2024-03-23T10:56:20;6.68;;;0.82;;
21987;SDS011;11158;53.404;-1.510;2024-03-23T10:58:47;4.00;;;0.82;;
21987;SDS011;11158;53.404;-1.510;2024-03-23T11:01:14;2.58;;;0.63;;
21987;SDS011;11158;53.404;-1.510;2024-03-23T11:03:44;4.90;;;0.75;;
21987;SDS011;11158;53.404;-1.510;2024-03-23T11:06:10;5.88;;;0.90;;
21987;SDS011;11158;53.404;-1.510;2024-03-23T11:08:59;7.13;;;1.52;;
21987;SDS011;11158;53.404;-1.510;2024-03-23T11:13:52;8.75;;;1.30;;
21987;SDS011;11158;53.404;-1.510;2024-03-23T11:16:22;12.13;;;1.85;;
21987;SDS011;11158;53.404;-1.510;2024-03-23T11:18:53;9.57;;;1.42;;
21987;SDS011;11158;53.404;-1.510;2024-03-23T11:24:22;1.98;;;0.60;;
21987;SDS011;11158;53.404;-1.510;2024-03-23T11:26:48;6.40;;;0.82;;
21987;SDS011;11158;53.404;-1.510;2024-03-23T11:29:15;5.03;;;0.80;;
21987;SDS011;11158;53.404;-1.510;2024-03-23T11:31:45;3.58;;;0.70;;
21987;SDS011;11158;53.404;-1.510;2024-03-23T11:34:15;6.50;;;0.63;;
21987;SDS011;11158;53.404;-1.510;2024-03-23T11:36:41;5.45;;;0.90;;
21987;SDS011;11158;53.404;-1.510;2024-03-23T11:39:17;4.53;;;0.80;;
21987;SDS011;11158;53.404;-1.510;2024-03-23T11:41:53;3.88;;;0.77;;
21987;SDS011;11158;53.404;-1.510;2024-03-23T11:44:25;2.20;;;0.38;;
21987;SDS011;11158;53.404;-1.510;2024-03-23T11:46:51;4.53;;;1.00;;
21987;SDS011;11158;53.404;-1.510;2024-03-23T11:54:14;6.75;;;0.82;;
21987;SDS011;11158;53.404;-1.510;2024-03-23T11:56:40;2.63;;;0.50;;
21987;SDS011;11158;53.404;-1.510;2024-03-23T12:01:33;2.80;;;0.65;;
21987;SDS011;11158;53.404;-1.510;2024-03-23T12:03:59;7.70;;;0.80;;
21987;SDS011;11158;53.404;-1.510;2024-03-23T12:06:24;5.25;;;0.63;;
21987;SDS011;11158;53.404;-1.510;2024-03-23T12:08:50;5.35;;;0.55;;
21987;SDS011;11158;53.404;-1.510;2024-03-23T12:11:16;3.03;;;0.57;;
21987;SDS011;11158;53.404;-1.510;2024-03-23T12:13:43;10.07;;;1.27;;
21987;SDS011;11158;53.404;-1.510;2024-03-23T12:16:20;7.50;;;1.00;;
21987;SDS011;11158;53.404;-1.510;2024-03-23T12:18:50;7.38;;;0.93;;
21987;SDS011;11158;53.404;-1.510;2024-03-23T12:21:19;1.15;;;0.22;;
21987;SDS011;11158;53.404;-1.510;2024-03-23T12:23:47;7.28;;;0.50;;
21987;SDS011;11158;53.404;-1.510;2024-03-23T12:26:15;6.88;;;0.80;;
21987;SDS011;11158;53.404;-1.510;2024-03-23T12:28:41;6.80;;;0.98;;
21987;SDS011;11158;53.404;-1.510;2024-03-23T12:31:07;10.93;;;0.90;;
21987;SDS011;11158;53.404;-1.510;2024-03-23T12:33:32;9.20;;;1.52;;
21987;SDS011;11158;53.404;-1.510;2024-03-23T12:35:57;4.80;;;0.60;;
21987;SDS011;11158;53.404;-1.510;2024-03-23T12:38:23;6.15;;;1.65;;
21987;SDS011;11158;53.404;-1.510;2024-03-23T12:40:49;9.48;;;1.10;;
21987;SDS011;11158;53.404;-1.510;2024-03-23T12:43:17;8.98;;;0.70;;
21987;SDS011;11158;53.404;-1.510;2024-03-23T12:45:49;3.83;;;0.75;;
21987;SDS011;11158;53.404;-1.510;2024-03-23T12:48:18;7.10;;;1.00;;
21987;SDS011;11158;53.404;-1.510;2024-03-23T12:50:43;2.70;;;0.70;;
21987;SDS011;11158;53.404;-1.510;2024-03-23T12:53:09;4.55;;;0.85;;
21987;SDS011;11158;53.404;-1.510;2024-03-23T12:55:35;4.82;;;1.00;;
21987;SDS011;11158;53.404;-1.510;2024-03-23T12:58:00;6.72;;;1.00;;
21987;SDS011;11158;53.404;-1.510;2024-03-23T13:00:26;7.05;;;1.00;;
21987;SDS011;11158;53.404;-1.510;2024-03-23T13:02:51;6.25;;;0.82;;
21987;SDS011;11158;53.404;-1.510;2024-03-23T13:05:17;9.10;;;1.00;;
21987;SDS011;11158;53.404;-1.510;2024-03-23T13:07:42;5.90;;;0.57;;
21987;SDS011;11158;53.404;-1.510;2024-03-23T13:10:07;8.10;;;0.80;;
21987;SDS011;11158;53.404;-1.510;2024-03-23T13:12:34;5.97;;;0.75;;
21987;SDS011;11158;53.404;-1.510;2024-03-23T13:14:59;6.93;;;1.20;;
21987;SDS011;11158;53.404;-1.510;2024-03-23T13:17:25;4.88;;;0.73;;
21987;SDS011;11158;53.404;-1.510;2024-03-23T13:19:52;10.57;;;1.10;;
21987;SDS011;11158;53.404;-1.510;2024-03-23T13:22:23;9.93;;;0.85;;
21987;SDS011;11158;53.404;-1.510;2024-03-23T13:24:48;5.38;;;0.90;;
21987;SDS011;11158;53.404;-1.510;2024-03-23T13:27:14;6.40;;;1.17;;
21987;SDS011;11158;53.404;-1.510;2024-03-23T13:29:39;4.43;;;0.73;;
21987;SDS011;11158;53.404;-1.510;2024-03-23T13:32:05;6.20;;;0.95;;
21987;SDS011;11158;53.404;-1.510;2024-03-23T13:34:31;11.52;;;1.67;;
21987;SDS011;11158;53.404;-1.510;2024-03-23T13:36:58;6.75;;;0.98;;
21987;SDS011;11158;53.404;-1.510;2024-03-23T13:39:23;9.05;;;1.33;;
21987;SDS011;11158;53.404;-1.510;2024-03-23T13:41:50;10.95;;;1.05;;
21987;SDS011;11158;53.404;-1.510;2024-03-23T13:44:15;5.22;;;1.08;;
21987;SDS011;11158;53.404;-1.510;2024-03-23T13:46:41;6.90;;;1.15;;
21987;SDS011;11158;53.404;-1.510;2024-03-23T13:49:18;9.18;;;0.80;;
21987;SDS011;11158;53.404;-1.510;2024-03-23T13:51:51;7.80;;;1.05;;
21987;SDS011;11158;53.404;-1.510;2024-03-23T13:54:16;13.63;;;1.35;;
21987;SDS011;11158;53.404;-1.510;2024-03-23T13:56:42;6.35;;;1.70;;
21987;SDS011;11158;53.404;-1.510;2024-03-23T13:59:08;9.82;;;1.55;;
21987;SDS011;11158;53.404;-1.510;2024-03-23T14:01:33;7.32;;;1.02;;
21987;SDS011;11158;53.404;-1.510;2024-03-23T14:03:59;5.00;;;0.95;;
21987;SDS011;11158;53.404;-1.510;2024-03-23T14:06:24;6.10;;;1.10;;
21987;SDS011;11158;53.404;-1.510;2024-03-23T14:08:49;2.80;;;0.77;;
21987;SDS011;11158;53.404;-1.510;2024-03-23T14:11:17;5.47;;;1.08;;
21987;SDS011;11158;53.404;-1.510;2024-03-23T14:13:43;5.40;;;0.95;;
21987;SDS011;11158;53.404;-1.510;2024-03-23T14:16:09;8.93;;;1.10;;
21987;SDS011;11158;53.404;-1.510;2024-03-23T14:18:34;9.38;;;1.70;;
21987;SDS011;11158;53.404;-1.510;2024-03-23T14:21:00;6.28;;;1.05;;
21987;SDS011;11158;53.404;-1.510;2024-03-23T14:23:30;9.05;;;1.52;;
21987;SDS011;11158;53.404;-1.510;2024-03-23T14:25:59;8.15;;;1.00;;
21987;SDS011;11158;53.404;-1.510;2024-03-23T14:28:24;8.93;;;1.27;;
21987;SDS011;11158;53.404;-1.510;2024-03-23T14:30:50;6.85;;;0.98;;
21987;SDS011;11158;53.404;-1.510;2024-03-23T14:33:17;6.93;;;0.70;;
21987;SDS011;11158;53.404;-1.510;2024-03-23T14:35:43;7.28;;;0.73;;
21987;SDS011;11158;53.404;-1.510;2024-03-23T14:38:17;11.88;;;1.40;;
21987;SDS011;11158;53.404;-1.510;2024-03-23T14:40:43;10.68;;;1.30;;
21987;SDS011;11158;53.404;-1.510;2024-03-23T14:43:08;7.38;;;1.10;;
21987;SDS011;11158;53.404;-1.510;2024-03-23T14:45:34;5.72;;;0.95;;
21987;SDS011;11158;53.404;-1.510;2024-03-23T14:47:59;3.15;;;0.95;;
21987;SDS011;11158;53.404;-1.510;2024-03-23T14:50:25;5.97;;;0.60;;
21987;SDS011;11158;53.404;-1.510;2024-03-23T14:52:51;2.45;;;0.77;;
21987;SDS011;11158;53.404;-1.510;2024-03-23T14:55:16;4.68;;;0.90;;
21987;SDS011;11158;53.404;-1.510;2024-03-23T14:57:42;9.77;;;0.90;;
21987;SDS011;11158;53.404;-1.510;2024-03-23T15:00:08;8.32;;;1.25;;
21987;SDS011;11158;53.404;-1.510;2024-03-23T15:02:36;9.40;;;1.17;;
21987;SDS011;11158;53.404;-1.510;2024-03-23T15:05:02;7.68;;;1.45;;
21987;SDS011;11158;53.404;-1.510;2024-03-23T15:07:29;5.30;;;1.55;;
21987;SDS011;11158;53.404;-1.510;2024-03-23T15:09:55;6.35;;;1.23;;
21987;SDS011;11158;53.404;-1.510;2024-03-23T15:12:20;9.82;;;1.20;;
21987;SDS011;11158;53.404;-1.510;2024-03-23T15:14:46;5.70;;;1.02;;
21987;SDS011;11158;53.404;-1.510;2024-03-23T15:17:12;7.95;;;1.52;;
21987;SDS011;11158;53.404;-1.510;2024-03-23T15:19:38;8.38;;;1.13;;
21987;SDS011;11158;53.404;-1.510;2024-03-23T15:22:04;12.68;;;1.45;;
21987;SDS011;11158;53.404;-1.510;2024-03-23T15:24:29;8.32;;;1.10;;
21987;SDS011;11158;53.404;-1.510;2024-03-23T15:26:56;8.85;;;1.30;;
21987;SDS011;11158;53.404;-1.510;2024-03-23T15:29:22;5.95;;;1.00;;
21987;SDS011;11158;53.404;-1.510;2024-03-23T15:31:48;6.43;;;1.50;;
21987;SDS011;11158;53.404;-1.510;2024-03-23T15:34:17;5.18;;;0.80;;
21987;SDS011;11158;53.404;-1.510;2024-03-23T15:36:44;9.18;;;1.17;;
21987;SDS011;11158;53.404;-1.510;2024-03-23T15:39:10;12.45;;;1.33;;
21987;SDS011;11158;53.404;-1.510;2024-03-23T15:41:35;12.48;;;2.25;;
21987;SDS011;11158;53.404;-1.510;2024-03-23T15:44:01;8.02;;;1.65;;
21987;SDS011;11158;53.404;-1.510;2024-03-23T15:46:27;16.92;;;2.05;;
21987;SDS011;11158;53.404;-1.510;2024-03-23T15:48:52;9.13;;;1.15;;
21987;SDS011;11158;53.404;-1.510;2024-03-23T15:51:19;8.85;;;1.08;;
21987;SDS011;11158;53.404;-1.510;2024-03-23T15:53:45;15.85;;;1.40;;
21987;SDS011;11158;53.404;-1.510;2024-03-23T15:56:10;9.57;;;1.33;;
21987;SDS011;11158;53.404;-1.510;2024-03-23T15:58:35;13.15;;;1.98;;
21987;SDS011;11158;53.404;-1.510;2024-03-23T16:01:02;11.18;;;1.67;;
21987;SDS011;11158;53.404;-1.510;2024-03-23T16:03:28;10.30;;;1.45;;
21987;SDS011;11158;53.404;-1.510;2024-03-23T16:05:56;8.15;;;1.27;;
21987;SDS011;11158;53.404;-1.510;2024-03-23T16:08:22;7.55;;;1.30;;
21987;SDS011;11158;53.404;-1.510;2024-03-23T16:10:48;6.63;;;1.27;;
21987;SDS011;11158;53.404;-1.510;2024-03-23T16:13:15;6.45;;;1.75;;
21987;SDS011;11158;53.404;-1.510;2024-03-23T16:15:41;8.55;;;1.52;;
21987;SDS011;11158;53.404;-1.510;2024-03-23T16:18:06;4.07;;;0.95;;
21987;SDS011;11158;53.404;-1.510;2024-03-23T16:20:32;4.30;;;0.90;;
21987;SDS011;11158;53.404;-1.510;2024-03-23T16:23:01;4.28;;;1.00;;
21987;SDS011;11158;53.404;-1.510;2024-03-23T16:25:27;10.60;;;1.30;;
21987;SDS011;11158;53.404;-1.510;2024-03-23T16:27:53;10.02;;;1.65;;
21987;SDS011;11158;53.404;-1.510;2024-03-23T16:30:18;7.22;;;1.67;;
21987;SDS011;11158;53.404;-1.510;2024-03-23T16:32:45;8.20;;;2.25;;
21987;SDS011;11158;53.404;-1.510;2024-03-23T16:35:13;10.85;;;1.90;;
21987;SDS011;11158;53.404;-1.510;2024-03-23T16:37:40;9.18;;;1.58;;
21987;SDS011;11158;53.404;-1.510;2024-03-23T16:40:05;12.02;;;2.38;;
21987;SDS011;11158;53.404;-1.510;2024-03-23T16:42:34;8.00;;;1.63;;
21987;SDS011;11158;53.404;-1.510;2024-03-23T16:45:00;10.98;;;2.13;;
21987;SDS011;11158;53.404;-1.510;2024-03-23T16:47:26;11.20;;;2.03;;
21987;SDS011;11158;53.404;-1.510;2024-03-23T16:49:52;9.85;;;1.75;;
21987;SDS011;11158;53.404;-1.510;2024-03-23T16:52:18;14.45;;;2.35;;
21987;SDS011;11158;53.404;-1.510;2024-03-23T16:54:43;8.30;;;1.65;;
21987;SDS011;11158;53.404;-1.510;2024-03-23T16:57:08;10.75;;;2.05;;
21987;SDS011;11158;53.404;-1.510;2024-03-23T16:59:34;8.90;;;1.90;;
21987;SDS011;11158;53.404;-1.510;2024-03-23T17:01:59;7.72;;;1.98;;
21987;SDS011;11158;53.404;-1.510;2024-03-23T17:04:25;11.70;;;2.28;;
21987;SDS011;11158;53.404;-1.510;2024-03-23T17:06:51;9.80;;;1.85;;
21987;SDS011;11158;53.404;-1.510;2024-03-23T17:09:16;11.15;;;2.08;;
21987;SDS011;11158;53.404;-1.510;2024-03-23T17:11:42;9.50;;;2.58;;
21987;SDS011;11158;53.404;-1.510;2024-03-23T17:14:11;5.68;;;1.77;;
21987;SDS011;11158;53.404;-1.510;2024-03-23T17:16:37;8.13;;;1.98;;
21987;SDS011;11158;53.404;-1.510;2024-03-23T17:19:03;8.00;;;1.33;;
21987;SDS011;11158;53.404;-1.510;2024-03-23T17:21:28;10.05;;;2.20;;
21987;SDS011;11158;53.404;-1.510;2024-03-23T17:23:54;7.47;;;1.75;;
21987;SDS011;11158;53.404;-1.510;2024-03-23T17:26:26;13.65;;;2.58;;
21987;SDS011;11158;53.404;-1.510;2024-03-23T17:28:51;10.65;;;2.28;;
21987;SDS011;11158;53.404;-1.510;2024-03-23T17:31:17;9.90;;;2.95;;
21987;SDS011;11158;53.404;-1.510;2024-03-23T17:33:43;6.80;;;2.53;;
21987;SDS011;11158;53.404;-1.510;2024-03-23T17:36:09;10.25;;;1.98;;
21987;SDS011;11158;53.404;-1.510;2024-03-23T17:41:02;6.90;;;1.50;;
21987;SDS011;11158;53.404;-1.510;2024-03-23T17:43:30;8.25;;;1.70;;
21987;SDS011;11158;53.404;-1.510;2024-03-23T17:45:59;8.25;;;1.95;;
21987;SDS011;11158;53.404;-1.510;2024-03-23T17:48:24;6.82;;;1.67;;
21987;SDS011;11158;53.404;-1.510;2024-03-23T17:53:25;5.15;;;1.50;;
21987;SDS011;11158;53.404;-1.510;2024-03-23T17:58:16;6.40;;;1.87;;
21987;SDS011;11158;53.404;-1.510;2024-03-23T18:00:41;6.00;;;1.70;;
21987;SDS011;11158;53.404;-1.510;2024-03-23T18:03:07;11.50;;;2.20;;
21987;SDS011;11158;53.404;-1.510;2024-03-23T18:05:33;8.20;;;2.08;;
21987;SDS011;11158;53.404;-1.510;2024-03-23T18:07:59;5.03;;;1.52;;
21987;SDS011;11158;53.404;-1.510;2024-03-23T18:10:24;10.20;;;2.80;;
21987;SDS011;11158;53.404;-1.510;2024-03-23T18:15:15;5.85;;;2.03;;
21987;SDS011;11158;53.404;-1.510;2024-03-23T18:17:41;7.10;;;2.10;;
21987;SDS011;11158;53.404;-1.510;2024-03-23T18:20:06;10.55;;;2.90;;
21987;SDS011;11158;53.404;-1.510;2024-03-23T18:22:32;6.57;;;2.13;;
21987;SDS011;11158;53.404;-1.510;2024-03-23T18:27:23;12.93;;;3.27;;
21987;SDS011;11158;53.404;-1.510;2024-03-23T18:32:13;10.63;;;2.77;;
21987;SDS011;11158;53.404;-1.510;2024-03-23T18:34:39;8.18;;;1.85;;
21987;SDS011;11158;53.404;-1.510;2024-03-23T18:37:04;9.13;;;2.38;;
21987;SDS011;11158;53.404;-1.510;2024-03-23T18:41:55;7.50;;;2.03;;
21987;SDS011;11158;53.404;-1.510;2024-03-23T18:44:20;4.88;;;1.42;;
21987;SDS011;11158;53.404;-1.510;2024-03-23T18:49:11;5.23;;;2.27;;
21987;SDS011;11158;53.404;-1.510;2024-03-23T18:51:37;9.85;;;2.20;;
21987;SDS011;11158;53.404;-1.510;2024-03-23T18:54:02;7.18;;;2.65;;
21987;SDS011;11158;53.404;-1.510;2024-03-23T18:56:28;10.43;;;2.13;;
21987;SDS011;11158;53.404;-1.510;2024-03-23T18:58:53;14.70;;;2.67;;
21987;SDS011;11158;53.404;-1.510;2024-03-23T19:01:19;8.23;;;1.65;;
21987;SDS011;11158;53.404;-1.510;2024-03-23T19:03:45;5.00;;;1.50;;
21987;SDS011;11158;53.404;-1.510;2024-03-23T19:06:11;11.48;;;2.40;;
21987;SDS011;11158;53.404;-1.510;2024-03-23T19:08:36;7.28;;;1.73;;
21987;SDS011;11158;53.404;-1.510;2024-03-23T19:11:02;5.35;;;1.50;;